Time;durP1;ratioP1;P1;durP2;ratioP2;P2;SDS_P1;SDS_P2;PMS_P1;PMS_P2;Temp;Humidity;BMP_temperature;BMP_pressure;BME280_temperature;BME280_humidity;BME280_pressure;Samples;Min_cycle;Max_cycle;Signal;HPM_P1;HPM_P2
2023/01/02 00:02:26;;;;;;;296.30;170.40;;;4.10;99.90;;;;;;4969937;28;20504;-72
2023/01/02 00:04:54;;;;;;;283.25;163.93;;;4.10;99.90;;;;;;4969897;28;20046;-72
2023/01/02 00:07:21;;;;;;;292.65;170.50;;;4.10;99.90;;;;;;4970070;28;20043;-71
2023/01/02 00:09:50;;;;;;;281.33;161.05;;;4.20;99.90;;;;;;4971900;28;20039;-72
2023/01/02 00:12:18;;;;;;;283.50;168.18;;;4.20;99.90;;;;;;4971976;28;20376;-72
2023/01/02 00:14:46;;;;;;;279.10;163.07;;;4.20;99.90;;;;;;4969963;28;20058;-73
2023/01/02 00:17:13;;;;;;;253.70;144.02;;;4.20;99.90;;;;;;4970073;28;20046;-72
2023/01/02 00:19:41;;;;;;;258.42;143.80;;;4.20;99.90;;;;;;4970058;28;20049;-72
2023/01/02 00:22:08;;;;;;;264.77;151.50;;;4.20;99.90;;;;;;4972715;28;20047;-72
2023/01/02 00:24:35;;;;;;;269.63;149.98;;;4.10;99.90;;;;;;4972777;28;20174;-71
2023/01/02 00:27:05;;;;;;;241.07;138.93;;;4.10;99.90;;;;;;4971853;28;20074;-72
2023/01/02 00:29:32;;;;;;;254.82;143.98;;;4.00;99.90;;;;;;4971690;28;20069;-71
2023/01/02 00:31:59;;;;;;;262.58;151.15;;;4.10;99.90;;;;;;4972437;28;20494;-71
2023/01/02 00:34:27;;;;;;;282.35;159.75;;;4.10;99.90;;;;;;4971677;28;20110;-72
2023/01/02 00:36:54;;;;;;;282.80;158.00;;;4.10;99.90;;;;;;4972623;28;20047;-72
2023/01/02 00:39:22;;;;;;;284.67;160.20;;;4.10;99.90;;;;;;4971134;28;20031;-71
2023/01/02 00:41:49;;;;;;;288.38;158.25;;;4.10;99.90;;;;;;4974191;28;20042;-72
2023/01/02 00:44:18;;;;;;;276.52;157.45;;;4.10;99.90;;;;;;4972307;28;20049;-73
2023/01/02 00:46:46;;;;;;;277.88;155.23;;;4.10;99.90;;;;;;4973322;28;20043;-72
2023/01/02 00:49:13;;;;;;;264.88;151.88;;;4.00;99.90;;;;;;4954805;28;20442;-74
2023/01/02 00:51:41;;;;;;;265.48;150.63;;;4.00;99.90;;;;;;4972835;28;20431;-72
2023/01/02 00:54:08;;;;;;;242.27;140.25;;;4.00;99.90;;;;;;4972449;28;20085;-73
2023/01/02 00:56:35;;;;;;;236.70;135.10;;;4.00;99.90;;;;;;4973110;28;20466;-72
2023/01/02 00:59:03;;;;;;;225.48;133.07;;;4.00;99.90;;;;;;4971134;28;20050;-71
2023/01/02 01:01:32;;;;;;;249.00;145.05;;;4.00;99.90;;;;;;4971940;28;20107;-71
2023/01/02 01:04:00;;;;;;;259.75;148.32;;;4.00;99.90;;;;;;4972795;28;20039;-72
2023/01/02 01:06:28;;;;;;;254.93;144.13;;;3.90;98.40;;;;;;4972258;28;20035;-72
2023/01/02 01:08:55;;;;;;;239.20;139.90;;;3.90;99.90;;;;;;4971336;28;20501;-71
2023/01/02 01:11:23;;;;;;;262.63;151.13;;;3.90;99.90;;;;;;4972502;28;20045;-72
2023/01/02 01:13:51;;;;;;;265.10;152.07;;;3.80;99.90;;;;;;4972861;28;20046;-73
2023/01/02 01:16:20;;;;;;;265.77;157.13;;;3.90;99.90;;;;;;4972397;28;20122;-72
2023/01/02 01:18:49;;;;;;;253.52;151.40;;;3.80;99.90;;;;;;4971199;28;20045;-73
2023/01/02 01:21:19;;;;;;;265.42;157.82;;;3.70;99.90;;;;;;4971010;28;20038;-73
2023/01/02 01:23:50;;;;;;;241.38;147.73;;;3.70;99.90;;;;;;4970830;28;20046;-74
2023/01/02 01:26:19;;;;;;;232.55;146.30;;;3.70;99.90;;;;;;4923725;28;1386738;-72
2023/01/02 01:28:46;;;;;;;240.10;150.13;;;3.70;99.90;;;;;;4971793;28;20043;-72
2023/01/02 01:31:16;;;;;;;254.00;154.68;;;3.80;99.90;;;;;;4972886;28;20091;-72
2023/01/02 01:33:44;;;;;;;276.05;161.48;;;3.70;99.90;;;;;;4974233;28;20049;-72
2023/01/02 01:36:14;;;;;;;226.15;140.98;;;3.70;99.90;;;;;;4981755;28;20085;-74
2023/01/02 01:38:42;;;;;;;220.13;129.75;;;3.70;99.90;;;;;;4966253;28;20435;-71
2023/01/02 01:41:11;;;;;;;216.60;124.25;;;3.70;99.90;;;;;;4972789;28;20419;-72
2023/01/02 01:43:41;;;;;;;209.57;118.63;;;3.70;99.90;;;;;;4953643;28;20384;-72
2023/01/02 01:46:17;;;;;;;208.23;116.70;;;3.80;99.90;;;;;;4972157;28;20047;-72
2023/01/02 01:48:46;;;;;;;211.48;119.57;;;3.80;99.90;;;;;;4972077;28;20108;-72
2023/01/02 01:51:16;;;;;;;177.70;100.38;;;3.80;99.90;;;;;;4972245;28;20042;-72
2023/01/02 01:53:46;;;;;;;216.50;119.53;;;3.70;99.90;;;;;;4972393;28;20039;-71
2023/01/02 01:56:14;;;;;;;186.70;102.75;;;3.70;99.90;;;;;;4972766;28;20053;-71
2023/01/02 01:58:45;;;;;;;192.23;109.70;;;3.70;99.90;;;;;;4971965;28;20042;-72
2023/01/02 02:01:14;;;;;;;179.95;104.47;;;3.70;99.90;;;;;;4971890;28;20046;-72
2023/01/02 02:03:44;;;;;;;194.88;109.00;;;3.80;99.90;;;;;;4971600;28;20031;-74
2023/01/02 02:06:12;;;;;;;186.35;108.47;;;3.80;99.90;;;;;;4955220;28;20050;-72
2023/01/02 02:08:47;;;;;;;227.88;123.57;;;3.80;99.90;;;;;;4972090;28;20047;-72
2023/01/02 02:11:15;;;;;;;;;;;3.70;99.90;;;;;;4972142;28;20510;-72
2023/01/02 02:13:43;;;;;;;202.98;115.43;;;3.70;99.90;;;;;;4972237;28;19928;-72
2023/01/02 02:16:24;;;;;;;192.93;111.63;;;3.60;99.90;;;;;;4971226;28;20062;-73
2023/01/02 02:19:17;;;;;;;198.40;110.55;;;3.60;99.90;;;;;;4970482;28;20043;-72
2023/01/02 02:22:08;;;;;;;190.50;105.35;;;3.50;99.90;;;;;;4970748;28;20043;-73
2023/01/02 02:25:03;;;;;;;192.95;111.25;;;3.60;99.90;;;;;;4971705;28;20047;-73
2023/01/02 02:28:03;;;;;;;177.57;101.75;;;3.60;99.90;;;;;;4953132;28;20066;-74
2023/01/02 02:30:36;;;;;;;163.80;95.25;;;3.60;99.90;;;;;;4966211;28;20047;-73
2023/01/02 02:33:22;;;;;;;172.88;100.47;;;3.70;99.90;;;;;;4971463;28;20047;-72
2023/01/02 02:36:02;;;;;;;188.07;107.40;;;3.60;99.90;;;;;;4970721;28;20043;-72
2023/01/02 02:38:51;;;;;;;166.40;97.00;;;3.60;99.90;;;;;;4971291;28;20133;-73
2023/01/02 02:41:31;;;;;;;137.60;81.85;;;3.60;99.90;;;;;;4970950;28;20042;-72
2023/01/02 02:44:06;;;;;;;133.85;77.30;;;3.70;99.90;;;;;;4968411;28;20072;-73
2023/01/02 02:46:42;;;;;;;188.57;106.75;;;3.70;99.90;;;;;;4970509;28;20042;-73
2023/01/02 02:49:19;;;;;;;180.20;101.15;;;3.70;99.90;;;;;;4970623;28;20642;-73
2023/01/02 02:51:55;;;;;;;165.20;94.65;;;3.70;99.90;;;;;;4969081;28;20070;-73
2023/01/02 02:54:30;;;;;;;171.70;99.32;;;3.70;99.90;;;;;;4969998;28;20138;-73
2023/01/02 02:56:58;;;;;;;169.43;97.07;;;3.70;99.90;;;;;;4970999;28;20050;-73
2023/01/02 02:59:27;;;;;;;157.77;91.85;;;3.70;99.90;;;;;;4970540;28;20047;-73
2023/01/02 03:01:56;;;;;;;156.48;90.93;;;3.60;99.90;;;;;;4970585;28;20046;-72
2023/01/02 03:04:24;;;;;;;157.55;90.85;;;3.60;99.90;;;;;;4970549;28;20423;-72
2023/01/02 03:07:03;;;;;;;151.65;87.35;;;3.50;99.90;;;;;;4971473;28;20042;-73
2023/01/02 03:09:43;;;;;;;149.40;86.75;;;3.50;99.90;;;;;;4970869;28;20038;-72
2023/01/02 03:12:24;;;;;;;150.68;85.82;;;3.50;99.90;;;;;;4972324;28;20105;-72
2023/01/02 03:14:59;;;;;;;144.05;85.63;;;3.50;99.90;;;;;;4970958;28;20042;-72
2023/01/02 03:17:35;;;;;;;149.20;87.53;;;3.50;99.90;;;;;;4970762;28;20050;-73
2023/01/02 03:20:09;;;;;;;147.48;87.55;;;3.50;99.90;;;;;;4970242;28;20043;-72
2023/01/02 03:22:40;;;;;;;150.65;86.57;;;3.50;99.90;;;;;;4970446;28;20506;-74
2023/01/02 03:25:11;;;;;;;164.45;97.53;;;3.50;99.90;;;;;;4970653;28;20410;-72
2023/01/02 03:27:44;;;;;;;175.27;100.53;;;3.50;1.00;;;;;;4969388;28;20047;-71
2023/01/02 03:30:16;;;;;;;169.13;94.68;;;3.50;1.00;;;;;;4973180;28;20479;-73
2023/01/02 03:32:50;;;;;;;166.10;93.78;;;3.50;79.30;;;;;;4973833;28;20055;-72
2023/01/02 03:35:22;;;;;;;188.30;104.38;;;3.50;57.70;;;;;;4952545;28;20062;-73
2023/01/02 03:37:53;;;;;;;174.52;100.53;;;3.50;1.00;;;;;;4952355;28;20133;-72
2023/01/02 03:40:25;;;;;;;176.77;102.97;;;3.50;1.00;;;;;;4970753;28;20480;-73
2023/01/02 03:42:57;;;;;;;162.25;96.32;;;3.50;99.90;;;;;;4968448;28;20506;-72
2023/01/02 03:45:29;;;;;;;181.90;103.95;;;3.50;99.90;;;;;;4970048;28;20114;-72
2023/01/02 03:48:08;;;;;;;182.88;107.72;;;3.50;99.90;;;;;;4969281;28;20158;-72
2023/01/02 03:50:44;;;;;;;181.18;104.32;;;3.50;99.90;;;;;;4969287;28;20093;-72
2023/01/02 03:53:13;;;;;;;177.68;99.72;;;3.60;99.90;;;;;;4969650;28;20074;-71
2023/01/02 03:55:45;;;;;;;178.13;104.22;;;3.60;62.70;;;;;;4970320;28;20050;-72
2023/01/02 03:58:18;;;;;;;175.23;102.88;;;3.50;1.00;;;;;;4972807;28;20051;-72
2023/01/02 04:00:52;;;;;;;174.82;101.90;;;3.50;1.00;;;;;;4973535;28;20126;-73
2023/01/02 04:03:29;;;;;;;165.25;100.80;;;3.50;1.00;;;;;;4974005;28;20038;-73
2023/01/02 04:06:04;;;;;;;165.25;98.25;;;3.50;1.00;;;;;;4974659;28;20058;-72
2023/01/02 04:08:37;;;;;;;170.23;99.22;;;3.60;1.00;;;;;;4974171;28;20038;-71
2023/01/02 04:11:07;;;;;;;142.07;83.43;;;3.60;29.40;;;;;;4974237;28;20039;-71
2023/01/02 04:13:42;;;;;;;139.85;83.35;;;3.60;5.50;;;;;;4975289;28;20126;-72
2023/01/02 04:16:12;;;;;;;138.50;79.55;;;3.60;1.00;;;;;;4976304;28;20035;-72
2023/01/02 04:18:44;;;;;;;133.20;77.47;;;3.60;3.60;;;;;;4973268;28;20491;-71
2023/01/02 04:21:18;;;;;;;146.77;84.35;;;3.50;99.90;;;;;;4973643;28;20043;-73
2023/01/02 04:23:49;;;;;;;138.82;83.90;;;3.40;99.90;;;;;;4956937;28;20047;-73
2023/01/02 04:26:24;;;;;;;135.68;82.13;;;3.40;99.90;;;;;;4974149;28;20054;-71
2023/01/02 04:28:52;;;;;;;138.63;85.28;;;3.40;99.90;;;;;;4972924;28;20054;-71
2023/01/02 04:31:26;;;;;;;149.45;89.15;;;3.40;99.90;;;;;;4973284;28;20047;-71
2023/01/02 04:33:59;;;;;;;137.60;87.90;;;3.40;99.90;;;;;;4973413;28;20070;-72
2023/01/02 04:36:26;;;;;;;152.55;91.50;;;3.40;99.90;;;;;;4973404;28;20053;-72
2023/01/02 04:38:53;;;;;;;153.57;96.32;;;3.40;99.90;;;;;;4972750;28;20050;-72
2023/01/02 04:41:25;;;;;;;141.95;92.65;;;3.40;99.90;;;;;;4971982;28;20034;-71
2023/01/02 04:43:53;;;;;;;144.20;90.07;;;3.40;99.90;;;;;;4972800;28;20039;-71
2023/01/02 04:46:21;;;;;;;140.82;89.97;;;3.30;99.90;;;;;;4972977;28;20071;-71
2023/01/02 04:48:49;;;;;;;148.07;93.65;;;3.30;99.90;;;;;;4972384;28;20390;-72
2023/01/02 04:51:18;;;;;;;143.98;85.78;;;3.40;99.90;;;;;;4973308;28;20039;-73
2023/01/02 04:53:48;;;;;;;128.98;80.78;;;3.40;99.90;;;;;;4973399;28;20077;-72
2023/01/02 04:56:15;;;;;;;137.15;81.25;;;3.40;99.90;;;;;;4973296;28;20046;-71
2023/01/02 04:58:44;;;;;;;138.88;82.93;;;3.40;99.90;;;;;;4972323;28;20058;-72
2023/01/02 05:01:12;;;;;;;141.40;78.90;;;3.40;99.90;;;;;;4971898;28;20039;-72
2023/01/02 05:03:40;;;;;;;135.25;81.07;;;3.30;1.00;;;;;;4972853;28;20076;-73
2023/01/02 05:06:08;;;;;;;138.43;79.03;;;3.30;1.00;;;;;;4970835;28;20061;-71
2023/01/02 05:08:38;;;;;;;130.00;75.28;;;3.30;1.00;;;;;;4954846;28;20062;-72
2023/01/02 05:11:06;;;;;;;119.45;70.50;;;3.40;4.50;;;;;;4971899;28;20042;-72
2023/01/02 05:13:34;;;;;;;128.75;75.97;;;3.40;1.00;;;;;;4972508;28;20070;-72
2023/01/02 05:16:02;;;;;;;132.95;75.60;;;3.40;1.00;;;;;;4973195;28;20130;-75
2023/01/02 05:18:31;;;;;;;133.48;79.45;;;3.40;1.00;;;;;;4954889;28;20122;-72
2023/01/02 05:21:02;;;;;;;128.07;77.35;;;3.40;1.00;;;;;;4973691;28;20043;-73
2023/01/02 05:23:47;;;;;;;123.65;73.20;;;3.40;1.00;;;;;;4973979;28;20045;-73
2023/01/02 05:26:17;;;;;;;122.47;73.63;;;3.30;99.90;;;;;;4975026;28;20142;-72
2023/01/02 05:28:45;;;;;;;132.63;77.60;;;3.30;1.00;;;;;;4972514;28;20057;-72
2023/01/02 05:31:13;;;;;;;155.38;83.60;;;3.30;1.00;;;;;;4971902;28;20407;-72
2023/01/02 05:33:40;;;;;;;127.78;76.10;;;3.30;99.90;;;;;;4971475;28;20039;-72
2023/01/02 05:36:08;;;;;;;134.23;75.80;;;3.30;99.90;;;;;;4971847;28;20403;-72
2023/01/02 05:38:38;;;;;;;126.40;74.20;;;3.40;1.00;;;;;;4971684;28;20070;-73
2023/01/02 05:41:07;;;;;;;122.28;74.03;;;3.40;1.00;;;;;;4972238;28;21057;-73
2023/01/02 05:43:37;;;;;;;139.80;80.60;;;3.40;1.00;;;;;;4971718;28;20053;-72
2023/01/02 05:46:09;;;;;;;140.70;82.07;;;3.30;1.00;;;;;;4971782;28;20047;-72
2023/01/02 05:48:36;;;;;;;157.05;92.07;;;3.30;1.00;;;;;;4971582;28;20047;-71
2023/01/02 05:51:05;;;;;;;157.82;93.07;;;3.30;99.90;;;;;;4971988;28;20034;-72
2023/01/02 05:53:32;;;;;;;187.15;108.10;;;3.30;1.00;;;;;;4972470;28;20468;-73
2023/01/02 05:56:07;;;;;;;221.23;132.23;;;3.20;99.90;;;;;;4971793;28;20043;-73
2023/01/02 05:58:38;;;;;;;178.57;107.15;;;3.20;99.90;;;;;;4970352;28;20653;-72
2023/01/02 06:01:07;;;;;;;162.40;99.40;;;3.20;1.00;;;;;;4971485;28;20138;-74
2023/01/02 06:03:34;;;;;;;144.65;86.80;;;3.20;99.90;;;;;;4972042;28;20046;-72
2023/01/02 06:06:06;;;;;;;160.13;90.47;;;3.20;99.90;;;;;;4971336;28;20034;-72
2023/01/02 06:08:34;;;;;;;158.02;91.40;;;3.30;99.90;;;;;;4971189;28;20041;-72
2023/01/02 06:11:02;;;;;;;158.18;89.75;;;3.20;99.90;;;;;;4971531;28;20090;-71
2023/01/02 06:13:30;;;;;;;150.02;89.30;;;3.20;99.90;;;;;;4971679;28;20046;-72
2023/01/02 06:15:59;;;;;;;142.18;85.30;;;3.20;99.90;;;;;;4971283;28;20046;-72
2023/01/02 06:18:28;;;;;;;152.95;86.07;;;3.20;99.90;;;;;;4969768;28;20043;-71
2023/01/02 06:20:59;;;;;;;144.68;87.68;;;3.30;99.90;;;;;;4972641;28;20065;-71
2023/01/02 06:23:26;;;;;;;142.73;84.70;;;3.20;99.90;;;;;;4974309;28;20031;-72
2023/01/02 06:25:53;;;;;;;135.52;79.05;;;3.30;99.90;;;;;;4975059;28;20047;-72
2023/01/02 06:28:21;;;;;;;125.60;76.45;;;3.40;99.90;;;;;;4955684;28;20050;-72
2023/01/02 06:30:48;;;;;;;134.50;81.40;;;3.40;99.90;;;;;;4971726;28;20042;-72
2023/01/02 06:33:17;;;;;;;125.38;77.53;;;3.40;99.90;;;;;;4971573;28;20563;-73
2023/01/02 06:35:45;;;;;;;142.40;84.50;;;3.50;99.90;;;;;;4971705;28;20046;-71
2023/01/02 06:38:12;;;;;;;133.05;82.20;;;3.40;1.00;;;;;;4971498;28;20058;-72
2023/01/02 06:40:40;;;;;;;133.82;78.60;;;3.40;1.00;;;;;;4971178;28;20046;-72
2023/01/02 06:43:07;;;;;;;139.35;84.55;;;3.40;1.00;;;;;;4971915;28;20035;-72
2023/01/02 06:45:34;;;;;;;148.30;90.10;;;3.40;1.00;;;;;;4971782;28;20045;-72
2023/01/02 06:48:02;;;;;;;162.13;93.53;;;3.40;1.00;;;;;;4954946;28;20057;-73
2023/01/02 06:50:31;;;;;;;160.90;95.97;;;3.40;1.00;;;;;;4973653;28;20077;-71
2023/01/02 06:52:58;;;;;;;163.73;98.70;;;3.50;1.00;;;;;;4974307;28;20058;-71
2023/01/02 06:55:25;;;;;;;150.75;88.43;;;3.50;1.00;;;;;;4974954;28;20057;-72
2023/01/02 06:57:53;;;;;;;174.27;102.55;;;3.60;1.00;;;;;;4955073;28;20078;-72
2023/01/02 07:00:20;;;;;;;182.80;104.10;;;3.70;1.00;;;;;;4970127;28;20047;-71
2023/01/02 07:02:48;;;;;;;195.70;108.70;;;3.80;1.00;;;;;;4971548;28;20048;-72
2023/01/02 07:05:15;;;;;;;186.77;102.38;;;3.80;1.00;;;;;;4971001;28;20596;-72
2023/01/02 07:07:44;;;;;;;186.05;104.72;;;3.90;99.90;;;;;;4970364;28;20134;-73
2023/01/02 07:10:11;;;;;;;215.35;114.55;;;4.00;99.90;;;;;;4970068;28;20049;-72
2023/01/02 07:12:39;;;;;;;169.50;97.10;;;4.20;99.90;;;;;;4969717;28;20039;-73
2023/01/02 07:15:07;;;;;;;164.52;93.10;;;4.20;1.00;;;;;;4969628;28;20606;-72
2023/01/02 07:17:35;;;;;;;150.38;89.68;;;4.20;1.00;;;;;;4970509;28;20046;-73
2023/01/02 07:20:02;;;;;;;160.45;95.53;;;4.30;1.00;;;;;;4969001;28;20043;-72
2023/01/02 07:22:29;;;;;;;159.35;93.05;;;4.30;1.00;;;;;;4970010;28;20037;-74
2023/01/02 07:25:00;;;;;;;169.48;99.53;;;4.30;99.90;;;;;;4970809;28;20043;-73
2023/01/02 07:27:29;;;;;;;178.15;102.15;;;4.30;36.10;;;;;;4970988;28;20059;-72
2023/01/02 07:29:56;;;;;;;167.13;104.22;;;4.30;1.00;;;;;;4971461;28;20398;-73
2023/01/02 07:32:24;;;;;;;156.23;96.00;;;4.30;99.90;;;;;;4970829;28;20058;-71
2023/01/02 07:34:52;;;;;;;166.52;95.00;;;4.40;99.90;;;;;;4971142;28;20507;-71
2023/01/02 07:37:19;;;;;;;145.02;92.25;;;4.40;71.50;;;;;;4972288;28;20058;-73
2023/01/02 07:39:46;;;;;;;129.38;84.35;;;4.50;1.00;;;;;;4954498;28;20126;-74
2023/01/02 07:42:15;;;;;;;135.27;83.25;;;4.60;1.00;;;;;;4969742;28;20042;-72
2023/01/02 07:44:42;;;;;;;168.27;101.65;;;4.70;99.90;;;;;;4970403;28;20057;-73
2023/01/02 07:47:10;;;;;;;163.52;99.55;;;4.70;1.00;;;;;;4968726;28;20043;-72
2023/01/02 07:49:37;;;;;;;178.07;108.78;;;4.80;1.00;;;;;;4969957;28;20084;-72
2023/01/02 07:52:08;;;;;;;203.70;125.60;;;4.90;1.00;;;;;;4969801;28;20050;-73
2023/01/02 07:54:36;;;;;;;243.13;144.77;;;4.80;1.00;;;;;;4969663;28;20054;-71
2023/01/02 07:57:04;;;;;;;227.48;133.98;;;4.90;99.90;;;;;;4969532;28;20049;-72
2023/01/02 07:59:33;;;;;;;215.48;132.95;;;5.00;1.00;;;;;;4969623;28;20039;-72
2023/01/02 08:02:00;;;;;;;201.98;125.25;;;5.20;1.00;;;;;;4969828;28;20051;-72
2023/01/02 08:04:27;;;;;;;205.25;124.18;;;5.20;99.90;;;;;;4969995;28;20050;-72
2023/01/02 08:06:55;;;;;;;185.57;117.78;;;5.40;99.90;;;;;;4969707;28;20043;-72
2023/01/02 08:09:22;;;;;;;178.02;116.15;;;5.50;1.00;;;;;;4969652;28;20067;-71
2023/01/02 08:11:50;;;;;;;170.25;110.70;;;5.70;1.00;;;;;;4952978;28;20042;-73
2023/01/02 08:14:17;;;;;;;182.85;115.90;;;5.80;1.00;;;;;;4952533;28;20050;-72
2023/01/02 08:16:46;;;;;;;197.98;119.45;;;5.90;99.90;;;;;;4970171;28;20063;-72
2023/01/02 08:19:13;;;;;;;241.02;145.48;;;5.80;99.90;;;;;;4965815;28;20070;-71
2023/01/02 08:21:41;;;;;;;226.82;137.48;;;5.90;99.90;;;;;;4970435;28;20039;-71
2023/01/02 08:24:08;;;;;;;279.55;165.18;;;5.90;1.00;;;;;;4970178;28;20222;-71
2023/01/02 08:26:36;;;;;;;249.15;152.82;;;6.00;99.90;;;;;;4942460;29;20051;-72
2023/01/02 08:29:03;;;;;;;266.35;158.85;;;6.10;1.00;;;;;;4940684;28;20052;-72
2023/01/02 08:31:31;;;;;;;230.45;139.85;;;6.20;1.00;;;;;;4938584;28;20062;-74
2023/01/02 08:34:00;;;;;;;223.63;136.00;;;6.30;1.00;;;;;;4940627;29;20496;-71
2023/01/02 08:36:27;;;;;;;227.75;137.25;;;6.50;99.90;;;;;;4940912;29;20095;-70
2023/01/02 08:38:55;;;;;;;208.63;127.93;;;6.50;59.40;;;;;;4939751;28;20086;-71
2023/01/02 08:41:32;;;;;;;182.25;112.07;;;6.60;99.90;;;;;;4942043;28;20048;-71
2023/01/02 08:44:00;;;;;;;148.80;90.80;;;6.70;99.90;;;;;;4942257;29;20051;-71
2023/01/02 08:46:28;;;;;;;195.45;119.53;;;6.90;1.00;;;;;;4943301;29;20035;-72
2023/01/02 08:48:55;;;;;;;197.63;120.32;;;7.00;1.00;;;;;;4940366;28;20558;-73
2023/01/02 08:51:24;;;;;;;205.77;130.20;;;7.10;1.00;;;;;;4943347;28;20054;-73
2023/01/02 08:53:52;;;;;;;171.25;108.53;;;7.20;99.90;;;;;;4944653;29;20039;-71
2023/01/02 08:56:21;;;;;;;182.38;118.95;;;7.40;99.90;;;;;;4943793;28;20040;-71
2023/01/02 08:58:53;;;;;;;186.57;116.82;;;7.50;99.90;;;;;;4944016;28;20048;-71
2023/01/02 09:01:21;;;;;;;179.93;118.10;;;7.70;99.90;;;;;;4941062;29;20130;-72
2023/01/02 09:03:48;;;;;;;176.18;114.45;;;7.70;1.00;;;;;;4944059;28;20291;-73
2023/01/02 09:06:16;;;;;;;184.15;115.80;;;7.90;1.00;;;;;;4943558;28;20055;-72
2023/01/02 09:08:45;;;;;;;173.60;111.75;;;8.10;1.00;;;;;;4944156;29;20175;-71
2023/01/02 09:11:14;;;;;;;158.18;105.15;;;8.30;1.00;;;;;;4942867;29;20059;-72
2023/01/02 09:13:43;;;;;;;152.13;98.68;;;8.50;1.00;;;;;;4944298;29;20039;-71
2023/01/02 09:16:11;;;;;;;149.70;97.65;;;8.60;1.00;;;;;;4942993;29;20078;-72
2023/01/02 09:18:39;;;;;;;148.65;99.82;;;8.70;1.00;;;;;;4943430;29;20054;-71
2023/01/02 09:21:07;;;;;;;149.52;103.68;;;8.90;99.90;;;;;;4944514;28;20036;-71
2023/01/02 09:23:36;;;;;;;152.55;101.70;;;9.00;99.90;;;;;;4944943;29;20043;-71
2023/01/02 09:26:06;;;;;;;150.45;102.57;;;9.10;99.90;;;;;;4954384;28;20521;-71
2023/01/02 09:28:35;;;;;;;151.18;100.82;;;9.20;92.20;;;;;;4972468;28;20058;-71
2023/01/02 09:31:05;;;;;;;143.88;101.43;;;9.40;75.50;;;;;;4972628;28;20049;-71
2023/01/02 09:33:33;;;;;;;139.63;90.82;;;9.50;1.00;;;;;;4975819;28;20043;-72
2023/01/02 09:36:02;;;;;;;126.57;82.00;;;9.60;1.00;;;;;;4956255;28;20411;-71
2023/01/02 09:38:29;;;;;;;115.18;74.80;;;9.60;1.00;;;;;;4972241;28;20047;-73
2023/01/02 09:40:59;;;;;;;99.47;67.38;;;9.70;1.00;;;;;;4972486;28;20043;-72
2023/01/02 09:43:36;;;;;;;105.25;68.72;;;9.90;1.00;;;;;;4954353;28;20403;-71
2023/01/02 09:46:06;;;;;;;98.97;62.90;;;9.90;1.00;;;;;;4971777;28;20126;-72
2023/01/02 09:48:36;;;;;;;96.53;63.50;;;10.10;1.00;;;;;;4971409;28;20423;-72
2023/01/02 09:51:05;;;;;;;81.78;56.63;;;10.20;1.00;;;;;;4972046;28;20042;-73
2023/01/02 09:53:34;;;;;;;92.90;62.78;;;10.30;1.00;;;;;;4970615;28;20066;-72
2023/01/02 09:56:08;;;;;;;82.75;55.75;;;10.40;1.00;;;;;;4972844;28;20039;-72
2023/01/02 09:58:46;;;;;;;87.90;58.78;;;10.60;1.00;;;;;;4974068;28;20130;-71
2023/01/02 10:01:22;;;;;;;69.07;48.60;;;10.70;1.00;;;;;;4971858;28;20039;-70
2023/01/02 10:03:57;;;;;;;71.50;49.40;;;10.90;1.00;;;;;;4971765;28;20411;-72
2023/01/02 10:06:31;;;;;;;69.95;46.85;;;11.10;1.00;;;;;;4971511;28;20042;-72
2023/01/02 10:09:06;;;;;;;67.40;44.80;;;11.30;99.90;;;;;;4971838;28;20047;-72
2023/01/02 10:11:46;;;;;;;74.57;49.70;;;11.40;99.90;;;;;;4971813;28;20487;-70
2023/01/02 10:14:22;;;;;;;77.03;47.25;;;11.50;99.90;;;;;;4974091;28;20300;-72
2023/01/02 10:16:52;;;;;;;73.95;50.78;;;11.50;99.90;;;;;;4979921;28;20043;-72
2023/01/02 10:19:23;;;;;;;77.15;50.53;;;11.50;99.90;;;;;;4972715;28;20078;-72
2023/01/02 10:21:55;;;;;;;81.95;54.28;;;11.60;99.90;;;;;;4972549;28;20094;-72
2023/01/02 10:24:34;;;;;;;84.30;56.40;;;11.70;99.90;;;;;;4971844;28;20042;-72
2023/01/02 10:27:03;;;;;;;86.50;55.72;;;11.70;99.90;;;;;;4971659;28;20058;-71
2023/01/02 10:29:38;;;;;;;91.28;58.03;;;11.70;99.90;;;;;;4971485;28;20049;-72
2023/01/02 10:32:11;;;;;;;86.97;58.83;;;11.90;99.90;;;;;;4971937;28;20074;-71
2023/01/02 10:34:43;;;;;;;94.72;62.78;;;11.90;99.90;;;;;;4971537;28;20039;-73
2023/01/02 10:37:13;;;;;;;113.18;70.85;;;12.00;99.90;;;;;;4971611;28;20047;-72
2023/01/02 10:39:42;;;;;;;121.00;78.95;;;12.00;99.90;;;;;;4970854;28;20046;-71
2023/01/02 10:42:12;;;;;;;133.77;88.25;;;12.10;99.90;;;;;;4971770;28;20073;-72
2023/01/02 10:44:43;;;;;;;135.57;91.05;;;12.10;99.90;;;;;;4970946;28;20044;-72
2023/01/02 10:47:15;;;;;;;142.60;93.68;;;12.10;99.90;;;;;;4971260;28;20050;-71
2023/01/02 10:49:44;;;;;;;146.52;98.13;;;12.20;99.90;;;;;;4970871;28;20450;-71
2023/01/02 10:52:19;;;;;;;159.35;106.30;;;12.30;97.00;;;;;;4971380;28;20035;-72
2023/01/02 10:54:53;;;;;;;155.60;105.13;;;12.30;24.10;;;;;;4971426;28;20043;-71
2023/01/02 10:57:25;;;;;;;150.05;101.25;;;12.40;48.90;;;;;;4970948;28;20047;-71
2023/01/02 10:59:59;;;;;;;141.63;95.32;;;12.50;1.00;;;;;;4970683;28;20415;-71
2023/01/02 11:02:30;;;;;;;144.97;97.03;;;12.50;1.00;;;;;;4970314;28;20102;-72
2023/01/02 11:05:02;;;;;;;132.20;90.90;;;12.60;1.00;;;;;;4970223;28;20131;-71
2023/01/02 11:07:34;;;;;;;133.13;88.05;;;12.70;1.00;;;;;;4974474;28;20035;-72
2023/01/02 11:10:01;;;;;;;140.93;93.43;;;12.90;1.00;;;;;;4985399;28;20057;-72
2023/01/02 11:12:31;;;;;;;138.50;93.80;;;13.00;1.00;;;;;;4983281;28;20057;-72
2023/01/02 11:15:14;;;;;;;136.60;89.82;;;13.10;1.00;;;;;;4976769;28;20121;-73
2023/01/02 11:17:44;;;;;;;124.32;87.63;;;13.30;1.00;;;;;;4970782;28;20049;-71
2023/01/02 11:20:24;;;;;;;123.63;85.57;;;13.40;1.00;;;;;;4970464;28;20442;-72
2023/01/02 11:22:54;;;;;;;118.68;78.63;;;13.40;1.00;;;;;;4952888;28;20059;-71
2023/01/02 11:25:24;;;;;;;120.35;80.38;;;13.60;1.00;;;;;;4969702;28;20121;-73
2023/01/02 11:27:56;;;;;;;121.05;76.63;;;13.60;1.00;;;;;;4969724;28;20045;-71
2023/01/02 11:30:34;;;;;;;114.30;76.68;;;13.70;1.00;;;;;;4970713;28;20043;-71
2023/01/02 11:33:07;;;;;;;118.95;78.22;;;13.90;1.00;;;;;;4970289;28;20057;-73
2023/01/02 11:35:39;;;;;;;115.93;77.25;;;14.00;1.00;;;;;;4970293;28;20126;-72
2023/01/02 11:38:14;;;;;;;120.18;81.13;;;14.10;1.00;;;;;;4970496;28;20035;-73
2023/01/02 11:40:54;;;;;;;120.90;83.38;;;14.20;1.00;;;;;;4970011;28;20039;-72
2023/01/02 11:46:33;;;;;;;139.32;92.97;;;14.50;1.00;;;;;;4891202;29;20085;-74
2023/01/02 11:49:05;;;;;;;129.77;87.95;;;14.60;1.00;;;;;;4890451;29;20053;-71
2023/01/02 11:51:37;;;;;;;139.20;94.45;;;14.60;1.00;;;;;;4890924;29;20106;-71
2023/01/02 11:54:12;;;;;;;139.38;99.93;;;14.60;1.00;;;;;;4891311;29;20059;-72
2023/01/02 11:56:42;;;;;;;153.98;102.10;;;14.80;1.00;;;;;;4891322;29;20045;-73
2023/01/02 11:59:17;;;;;;;156.65;108.05;;;14.90;1.00;;;;;;4890940;29;20131;-72
2023/01/02 12:01:55;;;;;;;159.75;109.80;;;15.00;1.00;;;;;;4891225;29;20048;-72
2023/01/02 12:04:23;;;;;;;172.15;117.30;;;15.10;1.00;;;;;;4875585;29;20087;-71
2023/01/02 12:07:17;;;;;;;174.15;119.18;;;15.20;1.00;;;;;;4891937;29;20149;-71
2023/01/02 12:09:52;;;;;;;177.40;120.25;;;15.30;1.00;;;;;;4890803;29;20048;-72
2023/01/02 12:12:46;;;;;;;175.85;120.18;;;15.30;1.00;;;;;;4891405;29;20536;-71
2023/01/02 12:15:50;;;;;;;171.88;116.88;;;15.40;1.00;;;;;;4891655;29;20085;-70
2023/01/02 12:18:28;;;;;;;168.70;119.13;;;15.50;1.00;;;;;;4958447;28;20062;-71
2023/01/02 12:21:03;;;;;;;177.13;120.35;;;15.60;1.00;;;;;;4974884;28;20063;-71
2023/01/02 12:24:01;;;;;;;171.77;120.60;;;15.60;1.00;;;;;;4954008;28;20042;-71
2023/01/02 12:26:35;;;;;;;173.18;118.43;;;15.70;1.00;;;;;;4967551;28;20977;-72
2023/01/02 12:29:32;;;;;;;169.30;114.80;;;15.80;1.00;;;;;;4973537;28;20047;-72
2023/01/02 12:32:15;;;;;;;149.63;106.05;;;15.90;1.00;;;;;;4956446;28;20061;-72
2023/01/02 12:35:07;;;;;;;151.25;101.53;;;16.00;1.00;;;;;;4974856;28;20071;-72
2023/01/02 12:37:44;;;;;;;157.18;107.07;;;16.10;1.00;;;;;;4974071;28;20128;-73
2023/01/02 12:40:28;;;;;;;164.07;107.47;;;16.10;1.00;;;;;;4974911;28;20057;-72
2023/01/02 12:43:14;;;;;;;152.85;104.70;;;16.20;1.00;;;;;;4981676;28;20134;-72
2023/01/02 12:45:51;;;;;;;140.05;99.05;;;16.20;1.00;;;;;;4975230;28;20510;-72
2023/01/02 12:48:33;;;;;;;147.93;99.95;;;16.20;1.00;;;;;;4978472;28;20050;-72
2023/01/02 12:51:15;;;;;;;143.48;98.20;;;16.20;1.00;;;;;;4959642;28;20042;-71